createdAt,value
2022-10-10T00:01:30.922Z,144968.47
2022-10-10T00:03:59.066Z,144953.94
2022-10-10T00:06:31.799Z,144921.19
2022-10-10T00:09:00.278Z,144915.16
2022-10-10T00:11:27.408Z,144838.78
2022-10-10T00:13:54.423Z,144890.88
2022-10-10T00:16:21.800Z,144878.78
2022-10-10T00:18:48.956Z,144867.84
2022-10-10T00:21:16.079Z,144854.50
2022-10-10T00:23:43.285Z,144858.16
2022-10-10T00:26:13.767Z,144866.66
2022-10-10T00:28:44.686Z,144858.16
2022-10-10T00:31:11.687Z,144878.78
2022-10-10T00:33:38.959Z,144890.88
2022-10-10T00:36:06.901Z,144943.03
2022-10-10T00:38:34.327Z,144968.47
2022-10-10T00:41:02.051Z,144987.91
2022-10-10T00:43:29.821Z,144949.09
2022-10-10T00:45:56.891Z,145017.00
2022-10-10T00:48:35.153Z,144861.81
2022-10-10T00:51:16.569Z,144898.16
2022-10-10T00:53:48.738Z,144847.28
2022-10-10T00:56:19.302Z,144810.91
2022-10-10T00:58:50.467Z,144791.47
2022-10-10T01:01:17.618Z,144791.47
2022-10-10T01:03:44.711Z,144799.97
2022-10-10T01:06:11.821Z,144813.31
2022-10-10T01:08:39.364Z,144776.94
2022-10-10T01:11:12.509Z,144774.56
2022-10-10T01:14:16.303Z,144758.78
2022-10-10T01:16:57.809Z,144757.56
2022-10-10T01:19:44.075Z,144745.44
2022-10-10T01:22:45.145Z,144738.19
2022-10-10T01:25:31.409Z,144741.81
2022-10-10T01:28:10.768Z,144745.44
2022-10-10T01:30:40.187Z,144764.88
2022-10-10T01:33:24.870Z,144759.97
2022-10-10T01:35:58.910Z,144808.47
2022-10-10T01:38:31.167Z,144852.13
2022-10-10T01:41:13.555Z,144844.81
2022-10-10T01:43:40.803Z,144806.06
2022-10-10T01:46:18.817Z,144815.75
2022-10-10T01:48:50.098Z,144804.81
2022-10-10T01:51:35.508Z,144784.25
2022-10-10T01:54:20.922Z,144776.94
2022-10-10T01:57:19.799Z,144750.28
2022-10-10T02:00:07.450Z,144699.41
2022-10-10T02:02:59.666Z,144670.34
2022-10-10T02:05:26.737Z,144640.00
2022-10-10T02:07:59.416Z,144627.88
2022-10-10T02:10:31.877Z,144624.28
2022-10-10T02:13:01.569Z,144638.81
2022-10-10T02:15:34.293Z,144556.47
2022-10-10T02:18:04.427Z,144607.31
2022-10-10T02:20:32.902Z,144624.28
2022-10-10T02:23:00.079Z,144534.66
2022-10-10T02:25:31.586Z,144494.69
2022-10-10T02:28:44.529Z,144621.84
2022-10-10T02:31:20.087Z,144607.31
2022-10-10T02:33:56.491Z,144585.50
2022-10-10T02:36:25.090Z,144585.50
2022-10-10T02:38:53.901Z,144538.28
2022-10-10T02:41:22.090Z,144597.63
2022-10-10T02:43:51.661Z,144585.50
2022-10-10T02:46:19.570Z,144568.53
2022-10-10T02:48:46.911Z,144506.81
2022-10-10T02:51:15.767Z,144443.84
2022-10-10T02:53:42.901Z,144440.22
2022-10-10T02:56:10.033Z,144489.84
2022-10-10T02:58:37.100Z,144508.00
2022-10-10T03:01:04.153Z,144506.81
2022-10-10T03:03:31.291Z,144504.38
2022-10-10T03:05:58.283Z,144495.88
2022-10-10T03:08:25.310Z,144494.69
2022-10-10T03:10:56.858Z,144477.72
2022-10-10T03:13:24.673Z,144474.13
2022-10-10T03:15:52.474Z,144440.22
2022-10-10T03:18:20.180Z,144436.56
2022-10-10T03:20:51.846Z,144361.56
2022-10-10T03:23:18.902Z,144414.81
2022-10-10T03:25:45.940Z,144418.41
2022-10-10T03:28:13.601Z,144395.41
2022-10-10T03:30:41.178Z,144408.72
2022-10-10T03:33:08.787Z,144408.72
2022-10-10T03:35:36.790Z,144420.84
2022-10-10T03:38:04.467Z,144430.53
2022-10-10T03:40:32.318Z,144447.50
2022-10-10T03:42:59.715Z,144449.88
2022-10-10T03:45:26.757Z,144418.41
2022-10-10T03:47:53.819Z,144409.94
2022-10-10T03:50:20.835Z,144430.53
2022-10-10T03:52:48.075Z,144449.88
2022-10-10T03:55:15.423Z,144439.00
2022-10-10T03:57:42.526Z,144429.34
2022-10-10T04:00:10.455Z,144396.66
2022-10-10T04:02:37.728Z,144413.56
2022-10-10T04:05:05.265Z,144432.97
2022-10-10T04:07:32.503Z,144428.09
2022-10-10T04:09:59.520Z,144309.50
2022-10-10T04:12:26.556Z,144299.81
2022-10-10T04:14:53.578Z,144377.25
2022-10-10T04:17:20.672Z,144357.91
2022-10-10T04:19:47.757Z,144349.44
2022-10-10T04:22:16.453Z,144332.47
2022-10-10T04:24:44.037Z,144328.88
2022-10-10T04:27:11.717Z,144279.28
2022-10-10T04:29:39.010Z,144340.97
2022-10-10T04:32:06.179Z,144252.66
2022-10-10T04:34:33.498Z,144265.97
2022-10-10T04:37:00.506Z,144338.56
2022-10-10T04:39:27.660Z,144317.97
2022-10-10T04:41:54.758Z,144305.91
2022-10-10T04:44:21.752Z,144313.13
2022-10-10T04:46:48.756Z,144320.41
2022-10-10T04:49:15.735Z,144249.00
2022-10-10T04:51:42.768Z,144324.06
2022-10-10T04:54:10.093Z,144355.47
2022-10-10T04:56:37.092Z,144365.19
2022-10-10T04:59:04.183Z,144382.09
2022-10-10T05:01:31.479Z,144372.44
2022-10-10T05:03:59.194Z,144350.63
2022-10-10T05:06:26.521Z,144331.28
2022-10-10T05:08:53.539Z,144278.03
2022-10-10T05:11:20.515Z,144340.97
2022-10-10T05:13:49.827Z,144324.06
2022-10-10T05:16:16.982Z,144210.28
2022-10-10T05:18:44.066Z,144294.97
2022-10-10T05:21:11.900Z,144299.81
2022-10-10T05:23:41.230Z,144304.66
2022-10-10T05:26:09.091Z,144242.97
2022-10-10T05:28:36.674Z,144236.91
2022-10-10T05:31:04.820Z,144297.44
2022-10-10T05:33:33.518Z,144212.72
2022-10-10T05:36:10.598Z,144287.75
2022-10-10T05:38:39.045Z,144290.16
2022-10-10T05:41:06.855Z,144290.16
2022-10-10T05:43:35.240Z,144294.97
2022-10-10T05:46:03.246Z,144297.44
2022-10-10T05:48:30.823Z,144288.94
2022-10-10T05:50:59.313Z,144302.25
2022-10-10T05:53:27.819Z,144302.25
2022-10-10T05:55:55.155Z,144305.91
2022-10-10T05:58:22.176Z,144297.44
2022-10-10T06:00:49.294Z,144314.34
2022-10-10T06:03:17.473Z,144316.78
2022-10-10T06:05:48.673Z,144270.81
2022-10-10T06:08:15.761Z,144313.13
2022-10-10T06:10:45.472Z,144331.28
2022-10-10T06:13:14.049Z,144350.63
2022-10-10T06:15:41.302Z,144353.06
2022-10-10T06:18:09.095Z,144354.28
2022-10-10T06:20:37.314Z,144374.88
2022-10-10T06:23:05.375Z,144378.50
2022-10-10T06:25:42.142Z,144322.81
2022-10-10T06:28:10.729Z,144384.53
2022-10-10T06:30:44.521Z,144441.41
2022-10-10T06:33:12.609Z,144474.13
2022-10-10T06:35:43.982Z,144431.72
2022-10-10T06:38:12.261Z,144503.16
2022-10-10T06:40:40.077Z,144449.88
2022-10-10T06:43:12.162Z,144529.81
2022-10-10T06:45:41.267Z,144544.34
2022-10-10T06:48:09.488Z,144584.31
2022-10-10T06:50:36.615Z,144517.69
2022-10-10T06:53:04.284Z,144607.31
2022-10-10T06:55:31.557Z,144610.97
2022-10-10T06:57:58.926Z,144606.13
2022-10-10T07:00:26.077Z,144655.78
2022-10-10T07:02:53.525Z,144684.88
2022-10-10T07:05:20.756Z,144689.72
2022-10-10T07:07:47.747Z,144732.13
2022-10-10T07:10:15.850Z,144767.25
2022-10-10T07:12:44.980Z,144791.47
2022-10-10T07:15:12.706Z,144781.78
2022-10-10T07:17:39.916Z,144820.59
2022-10-10T07:20:07.500Z,144836.34
2022-10-10T07:22:34.846Z,144854.50
2022-10-10T07:25:01.934Z,144893.31
2022-10-10T07:27:28.938Z,144944.22
2022-10-10T07:29:56.176Z,144944.22
2022-10-10T07:32:23.135Z,144956.38
2022-10-10T07:34:50.903Z,144953.94
2022-10-10T07:37:17.937Z,145009.69
2022-10-10T07:39:44.939Z,145038.81
2022-10-10T07:42:12.087Z,145054.56
2022-10-10T07:44:39.079Z,145103.09
2022-10-10T07:47:06.192Z,145135.84
2022-10-10T07:49:33.327Z,145185.59
2022-10-10T07:52:01.614Z,145225.66
2022-10-10T07:54:29.731Z,145274.25
2022-10-10T07:56:57.660Z,145291.22
2022-10-10T07:59:25.247Z,145343.44
2022-10-10T08:01:52.374Z,145364.03
2022-10-10T08:04:20.047Z,145408.97
2022-10-10T08:06:48.198Z,145436.88
2022-10-10T08:09:15.514Z,145412.63
2022-10-10T08:11:42.744Z,145412.63
2022-10-10T08:14:10.012Z,145446.59
2022-10-10T08:16:37.042Z,145487.88
2022-10-10T08:19:04.550Z,145525.56
2022-10-10T08:21:31.657Z,145515.84
2022-10-10T08:23:58.663Z,145566.88
2022-10-10T08:26:25.882Z,145621.53
2022-10-10T08:28:53.971Z,145668.91
2022-10-10T08:31:21.881Z,145696.84
2022-10-10T08:33:50.503Z,145741.84
2022-10-10T08:36:20.351Z,145764.94
2022-10-10T08:38:48.010Z,145830.63
2022-10-10T08:41:27.603Z,145837.88
2022-10-10T08:44:17.002Z,145898.69
2022-10-10T08:46:58.025Z,145885.31
2022-10-10T08:49:52.191Z,145974.06
2022-10-10T08:52:53.993Z,146034.88
2022-10-10T08:55:33.751Z,146088.47
2022-10-10T08:58:12.613Z,146123.75
2022-10-10T09:00:54.853Z,146112.78
2022-10-10T09:03:43.406Z,146098.19
2022-10-10T09:06:19.307Z,146160.25
2022-10-10T09:09:01.315Z,146217.44
2022-10-10T09:11:35.343Z,146253.94
2022-10-10T09:14:39.514Z,146317.25
2022-10-10T09:17:28.473Z,146344.03
2022-10-10T09:20:32.655Z,146426.88
2022-10-10T09:23:43.958Z,146479.28
2022-10-10T09:26:17.429Z,146524.34
2022-10-10T09:28:52.957Z,146541.38
2022-10-10T09:31:38.611Z,146594.97
2022-10-10T09:34:24.356Z,146619.34
2022-10-10T09:36:54.171Z,146679.03
2022-10-10T09:39:43.996Z,146712.03
2022-10-10T09:42:15.333Z,146731.50
2022-10-10T09:44:43.523Z,146753.47
2022-10-10T09:47:16.823Z,146743.72
2022-10-10T09:49:44.712Z,146777.81
2022-10-10T09:52:26.724Z,146779.03
2022-10-10T09:55:00.849Z,146814.41
2022-10-10T09:57:39.033Z,146811.97
2022-10-10T10:00:26.107Z,146824.13
2022-10-10T10:03:12.154Z,146843.63
2022-10-10T10:05:41.749Z,146868.03
2022-10-10T10:08:20.121Z,146897.28
2022-10-10T10:10:47.316Z,146949.75
2022-10-10T10:13:24.184Z,146958.28
2022-10-10T10:15:58.664Z,146996.13
2022-10-10T10:18:28.752Z,147020.50
2022-10-10T10:21:08.062Z,147004.69
2022-10-10T10:23:41.677Z,147029.06
2022-10-10T10:26:22.037Z,147068.06
2022-10-10T10:28:51.409Z,146998.56
2022-10-10T10:31:35.408Z,147038.81
2022-10-10T10:34:36.346Z,147076.63
2022-10-10T10:37:24.007Z,147069.31
2022-10-10T10:40:17.659Z,147090.03
2022-10-10T10:43:06.174Z,147063.19
2022-10-10T10:46:09.742Z,147122.97
2022-10-10T10:49:01.967Z,147109.59
2022-10-10T10:51:46.487Z,147129.09
2022-10-10T10:54:25.608Z,147207.19
2022-10-10T10:57:11.118Z,147204.72
2022-10-10T11:00:41.239Z,147219.41
2022-10-10T11:04:15.653Z,147268.25
2022-10-10T11:06:12.541Z,147282.88
2022-10-10T11:09:04.419Z,147314.63
2022-10-10T11:11:50.752Z,147306.09
2022-10-10T11:14:39.612Z,147321.97
2022-10-10T11:17:37.709Z,147350.03
2022-10-10T11:20:16.522Z,147396.44
2022-10-10T11:22:51.616Z,147387.88
2022-10-10T11:25:26.391Z,147313.44
2022-10-10T11:27:58.068Z,147409.88
2022-10-10T11:30:29.167Z,147375.72
2022-10-10T11:33:08.006Z,147334.19
2022-10-10T11:35:38.436Z,147475.84
2022-10-10T11:38:25.553Z,147470.91
2022-10-10T11:41:08.356Z,147477.06
2022-10-10T11:43:44.140Z,147435.53
2022-10-10T11:46:52.811Z,147510.06
2022-10-10T11:49:28.346Z,147491.75
2022-10-10T11:51:58.118Z,147536.94
2022-10-10T11:55:01.794Z,147576.00
2022-10-10T11:57:53.437Z,147620.00
2022-10-10T12:00:20.632Z,147600.47
2022-10-10T12:02:48.441Z,147662.75
2022-10-10T12:05:23.145Z,147600.47
2022-10-10T12:08:04.633Z,147635.84
2022-10-10T12:10:41.159Z,147629.75
2022-10-10T12:13:30.206Z,147650.56
2022-10-10T12:16:03.399Z,147671.31
2022-10-10T12:18:44.790Z,147671.31
2022-10-10T12:21:18.648Z,147698.19
2022-10-10T12:24:04.543Z,147712.84
2022-10-10T12:26:53.340Z,147737.38
2022-10-10T12:30:09.493Z,147701.88
2022-10-10T12:32:38.451Z,147700.66
2022-10-10T12:35:29.577Z,147707.97
2022-10-10T12:38:05.760Z,147717.78
2022-10-10T12:40:34.245Z,147703.06
2022-10-10T12:43:21.697Z,147602.88
2022-10-10T12:45:55.684Z,147672.53
2022-10-10T12:48:24.099Z,147693.31
2022-10-10T12:51:00.551Z,147604.13
2022-10-10T12:53:30.990Z,147649.31
2022-10-10T12:56:01.180Z,147673.78
2022-10-10T12:58:35.520Z,147613.91
2022-10-10T13:01:07.746Z,147681.06
2022-10-10T13:03:41.972Z,147704.28
2022-10-10T13:06:41.064Z,147738.56
2022-10-10T13:09:16.470Z,147632.22
2022-10-10T13:11:54.684Z,147660.31
2022-10-10T13:14:22.854Z,147654.19
2022-10-10T13:16:49.912Z,147685.97
2022-10-10T13:19:25.178Z,147611.44
2022-10-10T13:21:54.655Z,147703.06
2022-10-10T13:24:31.562Z,147722.66
2022-10-10T13:26:58.914Z,147731.22
2022-10-10T13:29:31.499Z,147728.81
2022-10-10T13:32:00.415Z,147741.00
2022-10-10T13:34:34.145Z,147684.75
2022-10-10T13:37:03.144Z,147655.44
2022-10-10T13:39:33.462Z,147695.78
2022-10-10T13:42:00.882Z,147617.53
2022-10-10T13:44:33.695Z,147712.84
2022-10-10T13:47:35.652Z,147676.19
2022-10-10T13:50:03.719Z,147656.66
2022-10-10T13:52:30.733Z,147645.66
2022-10-10T13:55:24.331Z,147651.75
2022-10-10T13:57:58.242Z,147620.00
2022-10-10T14:00:32.573Z,147616.31
2022-10-10T14:02:59.982Z,147659.13
2022-10-10T14:05:31.678Z,147664.00
2022-10-10T14:08:00.096Z,147659.13
2022-10-10T14:10:33.598Z,147620.00
2022-10-10T14:13:01.272Z,147610.22
2022-10-10T14:15:40.580Z,147642.00
2022-10-10T14:18:25.594Z,147628.56
2022-10-10T14:20:56.443Z,147615.13
2022-10-10T14:23:23.526Z,147583.34
2022-10-10T14:25:50.693Z,147544.25
2022-10-10T14:28:20.716Z,147569.91
2022-10-10T14:30:48.080Z,147549.16
2022-10-10T14:33:18.127Z,147573.59
2022-10-10T14:35:46.950Z,147532.06
2022-10-10T14:38:14.607Z,147546.69
2022-10-10T14:40:44.848Z,147512.53
2022-10-10T14:43:12.171Z,147535.72
2022-10-10T14:45:39.346Z,147555.25
2022-10-10T14:48:06.664Z,147591.91
2022-10-10T14:50:36.254Z,147609.03
2022-10-10T14:53:04.392Z,147617.53
2022-10-10T14:55:31.590Z,147620.00
2022-10-10T14:57:58.572Z,147605.34
2022-10-10T15:00:27.188Z,147602.88
2022-10-10T15:02:54.751Z,147600.47
2022-10-10T15:05:23.187Z,147572.38
2022-10-10T15:07:53.519Z,147554.06
2022-10-10T15:10:34.973Z,147503.97
2022-10-10T15:13:03.312Z,147517.41
2022-10-10T15:15:31.063Z,147496.63
2022-10-10T15:17:59.099Z,147448.97
2022-10-10T15:20:31.101Z,147477.06
2022-10-10T15:23:05.486Z,147459.94
2022-10-10T15:25:34.308Z,147461.16
2022-10-10T15:28:02.751Z,147479.47
2022-10-10T15:30:30.121Z,147497.84
2022-10-10T15:32:57.100Z,147507.59
2022-10-10T15:35:25.589Z,147502.72
2022-10-10T15:37:53.005Z,147490.53
2022-10-10T15:40:23.486Z,147475.84
2022-10-10T15:42:51.371Z,147373.25
2022-10-10T15:45:43.548Z,147439.22
2022-10-10T15:48:06.692Z,147444.09
2022-10-10T15:50:39.055Z,147435.53
2022-10-10T15:53:06.034Z,147429.41
2022-10-10T15:55:33.018Z,147429.41
2022-10-10T15:58:00.066Z,147356.13
2022-10-10T16:00:27.124Z,147412.34
2022-10-10T16:02:54.113Z,147401.31
2022-10-10T16:05:21.219Z,147378.13
2022-10-10T16:07:48.628Z,147318.31
2022-10-10T16:10:15.850Z,147336.63
2022-10-10T16:12:42.915Z,147317.09
2022-10-10T16:15:10.130Z,147304.88
2022-10-10T16:17:37.115Z,147292.69
2022-10-10T16:20:04.580Z,147296.31
2022-10-10T16:22:31.579Z,147301.19
2022-10-10T16:25:20.821Z,147290.22
2022-10-10T16:27:46.163Z,147275.59
2022-10-10T16:30:13.298Z,147263.38
2022-10-10T16:32:42.632Z,147251.16
2022-10-10T16:35:11.033Z,147242.59
2022-10-10T16:37:39.273Z,147234.06
2022-10-10T16:40:07.209Z,147214.50
2022-10-10T16:42:34.535Z,147216.97
2022-10-10T16:45:01.658Z,147204.72
2022-10-10T16:47:28.656Z,147203.53
2022-10-10T16:49:55.647Z,147192.56
2022-10-10T16:52:22.707Z,147185.22
2022-10-10T16:54:52.166Z,147168.13
2022-10-10T16:57:20.317Z,147165.72
2022-10-10T16:59:47.365Z,147158.38
2022-10-10T17:02:14.530Z,147136.41
2022-10-10T17:04:41.596Z,147136.41
2022-10-10T17:07:08.977Z,147126.66
2022-10-10T17:09:36.000Z,147119.34
2022-10-10T17:12:03.495Z,147114.47
2022-10-10T17:14:31.526Z,147101.06
2022-10-10T17:17:11.507Z,147103.47
2022-10-10T17:19:39.818Z,147080.28
2022-10-10T17:22:06.823Z,147102.25
2022-10-10T17:24:35.642Z,147099.78
2022-10-10T17:27:02.985Z,147094.91
2022-10-10T17:29:30.000Z,147060.78
2022-10-10T17:32:01.573Z,147049.78
2022-10-10T17:34:31.209Z,147058.31
2022-10-10T17:36:58.251Z,147036.41
2022-10-10T17:39:25.271Z,147024.19
2022-10-10T17:41:52.335Z,147007.09
2022-10-10T17:44:19.452Z,146953.38
2022-10-10T17:46:46.470Z,146992.47
2022-10-10T17:49:14.038Z,147002.22
2022-10-10T17:51:41.263Z,147021.72
2022-10-10T17:54:09.957Z,147011.97
2022-10-10T17:56:37.477Z,146972.91
2022-10-10T17:59:06.549Z,147024.19
2022-10-10T18:01:37.996Z,147021.72
2022-10-10T18:04:05.890Z,147013.19
2022-10-10T18:06:33.705Z,146998.56
2022-10-10T18:09:01.097Z,147031.47
2022-10-10T18:11:30.614Z,147024.19
2022-10-10T18:14:00.534Z,147002.22
2022-10-10T18:16:30.571Z,147029.06
2022-10-10T18:18:58.117Z,146997.34
2022-10-10T18:21:26.109Z,147015.66
2022-10-10T18:23:53.933Z,147009.56
2022-10-10T18:26:26.834Z,147019.31
2022-10-10T18:28:55.676Z,147019.31
2022-10-10T18:31:28.256Z,146977.78
2022-10-10T18:33:55.864Z,146941.22
2022-10-10T18:36:25.116Z,147001.00
2022-10-10T18:38:52.615Z,147002.22
2022-10-10T18:41:22.576Z,146972.91
2022-10-10T18:43:50.735Z,146972.91
2022-10-10T18:46:20.430Z,146972.91
2022-10-10T18:48:52.733Z,146958.28
2022-10-10T18:51:24.480Z,146957.03
2022-10-10T18:53:55.443Z,146979.00
2022-10-10T18:56:25.764Z,146953.38
2022-10-10T18:58:55.420Z,146980.22
2022-10-10T19:01:26.412Z,146968.06
2022-10-10T19:03:54.570Z,146941.22
2022-10-10T19:06:23.355Z,146949.75
2022-10-10T19:08:51.946Z,146963.16
2022-10-10T19:11:24.755Z,146946.09
2022-10-10T19:13:52.242Z,146929.00
2022-10-10T19:16:19.786Z,146938.75
2022-10-10T19:18:47.246Z,146937.53
2022-10-10T19:21:15.258Z,146926.59
2022-10-10T19:23:43.575Z,146924.13
2022-10-10T19:26:13.114Z,146909.50
2022-10-10T19:28:41.106Z,146872.91
2022-10-10T19:31:14.075Z,146880.22
2022-10-10T19:33:42.217Z,146872.91
2022-10-10T19:36:11.740Z,146853.44
2022-10-10T19:38:40.638Z,146843.63
2022-10-10T19:41:13.327Z,146846.09
2022-10-10T19:43:41.383Z,146855.84
2022-10-10T19:46:10.737Z,146855.84
2022-10-10T19:48:37.810Z,146838.75
2022-10-10T19:51:07.027Z,146843.63
2022-10-10T19:53:35.909Z,146772.94
2022-10-10T19:56:08.533Z,146841.22
2022-10-10T19:58:36.988Z,146830.25
2022-10-10T20:01:10.001Z,146818.06
2022-10-10T20:03:37.344Z,146770.50
2022-10-10T20:06:05.432Z,146666.88
2022-10-10T20:08:33.334Z,146726.63
2022-10-10T20:11:00.884Z,146731.50
2022-10-10T20:13:27.966Z,146787.56
2022-10-10T20:16:00.216Z,146787.56
2022-10-10T20:18:27.494Z,146780.28
2022-10-10T20:20:54.642Z,146781.50
2022-10-10T20:23:24.189Z,146785.16
2022-10-10T20:25:52.464Z,146799.78
2022-10-10T20:28:21.340Z,146759.53
2022-10-10T20:30:50.526Z,146783.91
2022-10-10T20:33:19.210Z,146758.34
2022-10-10T20:35:49.348Z,146743.72
2022-10-10T20:38:19.426Z,146670.53
2022-10-10T20:40:46.602Z,146636.41
2022-10-10T20:43:14.860Z,146697.31
2022-10-10T20:45:42.048Z,146658.34
2022-10-10T20:48:09.847Z,146729.06
2022-10-10T20:50:38.135Z,146735.19
2022-10-10T20:53:06.364Z,146627.88
2022-10-10T20:55:33.816Z,146487.81
2022-10-10T20:58:00.822Z,146553.56
2022-10-10T21:00:27.849Z,146490.22
2022-10-10T21:02:56.591Z,146476.81
2022-10-10T21:05:23.694Z,146400.03
2022-10-10T21:07:50.726Z,146353.78
2022-10-10T21:10:17.768Z,146400.03
2022-10-10T21:12:44.799Z,146381.78
2022-10-10T21:15:11.805Z,146358.63
2022-10-10T21:17:39.007Z,146319.69
2022-10-10T21:20:07.096Z,146348.91
2022-10-10T21:22:34.159Z,146383.03
2022-10-10T21:25:01.196Z,146339.16
2022-10-10T21:27:28.180Z,146328.22
2022-10-10T21:29:55.210Z,146317.25
2022-10-10T21:32:22.211Z,146234.47
2022-10-10T21:34:52.039Z,146227.22
2022-10-10T21:37:22.635Z,146244.22
2022-10-10T21:39:49.619Z,146286.84
2022-10-10T21:42:16.830Z,146245.47
2022-10-10T21:44:43.834Z,146176.06
2022-10-10T21:47:10.836Z,146218.69
2022-10-10T21:49:37.850Z,146253.94
2022-10-10T21:52:04.883Z,146219.88
2022-10-10T21:54:31.885Z,146205.28
2022-10-10T21:56:58.938Z,146234.47
2022-10-10T21:59:30.106Z,146195.56
2022-10-10T22:01:57.227Z,146196.75
2022-10-10T22:04:28.690Z,146193.09
2022-10-10T22:06:56.162Z,146195.56
2022-10-10T22:09:23.193Z,146167.53
2022-10-10T22:11:50.201Z,146034.88
2022-10-10T22:14:17.470Z,146064.09
2022-10-10T22:16:44.594Z,146042.19
2022-10-10T22:19:11.579Z,146013.03
2022-10-10T22:21:39.083Z,146034.88
2022-10-10T22:24:07.434Z,146005.69
2022-10-10T22:26:35.230Z,146010.56
2022-10-10T22:29:02.353Z,145988.66
2022-10-10T22:31:30.032Z,145974.06
2022-10-10T22:33:58.014Z,145952.19
2022-10-10T22:36:25.092Z,145944.91
2022-10-10T22:38:52.188Z,145933.94
2022-10-10T22:41:19.191Z,145909.63
2022-10-10T22:43:46.230Z,145918.16
2022-10-10T22:46:13.747Z,145927.88
2022-10-10T22:48:40.995Z,145908.44
2022-10-10T22:51:12.035Z,145915.69
2022-10-10T22:53:40.500Z,145903.56
2022-10-10T22:56:08.984Z,145811.13
2022-10-10T22:58:36.815Z,145864.63
2022-10-10T23:01:06.440Z,145823.31
2022-10-10T23:03:33.636Z,145799.00
2022-10-10T23:06:01.472Z,145766.16
2022-10-10T23:08:29.406Z,145738.19
2022-10-10T23:10:56.494Z,145762.53
2022-10-10T23:13:23.680Z,145647.03
2022-10-10T23:15:50.806Z,145704.19
2022-10-10T23:18:17.866Z,145694.44
2022-10-10T23:20:46.819Z,145732.16
2022-10-10T23:23:14.647Z,145665.25
2022-10-10T23:25:46.518Z,145685.91
2022-10-10T23:28:14.714Z,145682.25
2022-10-10T23:30:43.703Z,145564.41
2022-10-10T23:33:11.699Z,145620.31
2022-10-10T23:35:38.976Z,145616.69
2022-10-10T23:38:06.210Z,145616.69
2022-10-10T23:40:33.920Z,145586.28
2022-10-10T23:43:01.325Z,145583.88
2022-10-10T23:45:28.376Z,145537.69
2022-10-10T23:47:55.437Z,145504.91
2022-10-10T23:50:22.583Z,145501.25
2022-10-10T23:52:49.656Z,145475.78
2022-10-10T23:55:16.820Z,145473.31
2022-10-10T23:57:43.917Z,145463.63
